sensor_id;sensor_type;location;lat;lon;timestamp;P1;durP1;ratioP1;P2;durP2;ratioP2
22705;SDS011;11520;51.198;4.468;2022-07-06T00:02:04;4.68;;;2.17;;
22705;SDS011;11520;51.198;4.468;2022-07-06T00:04:31;4.38;;;1.80;;
22705;SDS011;11520;51.198;4.468;2022-07-06T00:06:56;5.28;;;1.90;;
22705;SDS011;11520;51.198;4.468;2022-07-06T00:09:23;7.90;;;2.33;;
22705;SDS011;11520;51.198;4.468;2022-07-06T00:11:50;4.85;;;1.90;;
22705;SDS011;11520;51.198;4.468;2022-07-06T00:16:47;5.20;;;2.13;;
22705;SDS011;11520;51.198;4.468;2022-07-06T00:19:13;5.35;;;2.25;;
22705;SDS011;11520;51.198;4.468;2022-07-06T00:21:38;5.75;;;1.88;;
22705;SDS011;11520;51.198;4.468;2022-07-06T00:24:04;6.05;;;2.30;;
22705;SDS011;11520;51.198;4.468;2022-07-06T00:26:31;5.78;;;1.95;;
22705;SDS011;11520;51.198;4.468;2022-07-06T00:28:56;4.45;;;2.30;;
22705;SDS011;11520;51.198;4.468;2022-07-06T00:33:51;7.25;;;2.50;;
22705;SDS011;11520;51.198;4.468;2022-07-06T00:36:16;4.50;;;2.25;;
22705;SDS011;11520;51.198;4.468;2022-07-06T00:38:42;5.00;;;2.70;;
22705;SDS011;11520;51.198;4.468;2022-07-06T00:41:08;5.28;;;2.58;;
22705;SDS011;11520;51.198;4.468;2022-07-06T00:43:51;6.13;;;2.35;;
22705;SDS011;11520;51.198;4.468;2022-07-06T00:46:26;4.20;;;2.45;;
22705;SDS011;11520;51.198;4.468;2022-07-06T00:48:57;5.45;;;2.60;;
22705;SDS011;11520;51.198;4.468;2022-07-06T00:51:26;5.63;;;2.53;;
22705;SDS011;11520;51.198;4.468;2022-07-06T00:54:00;9.40;;;2.33;;
22705;SDS011;11520;51.198;4.468;2022-07-06T00:56:29;4.60;;;2.13;;
22705;SDS011;11520;51.198;4.468;2022-07-06T00:58:56;7.22;;;3.08;;
22705;SDS011;11520;51.198;4.468;2022-07-06T01:01:22;7.18;;;2.72;;
22705;SDS011;11520;51.198;4.468;2022-07-06T01:03:49;5.90;;;2.50;;
22705;SDS011;11520;51.198;4.468;2022-07-06T01:06:15;5.53;;;2.42;;
22705;SDS011;11520;51.198;4.468;2022-07-06T01:08:41;7.03;;;2.80;;
22705;SDS011;11520;51.198;4.468;2022-07-06T01:11:07;6.07;;;3.00;;
22705;SDS011;11520;51.198;4.468;2022-07-06T01:13:33;5.07;;;3.05;;
22705;SDS011;11520;51.198;4.468;2022-07-06T01:15:59;6.70;;;3.28;;
22705;SDS011;11520;51.198;4.468;2022-07-06T01:18:26;4.47;;;2.85;;
22705;SDS011;11520;51.198;4.468;2022-07-06T01:21:04;5.55;;;3.03;;
22705;SDS011;11520;51.198;4.468;2022-07-06T01:23:42;8.23;;;3.53;;
22705;SDS011;11520;51.198;4.468;2022-07-06T01:26:12;9.25;;;3.58;;
22705;SDS011;11520;51.198;4.468;2022-07-06T01:28:41;6.57;;;2.75;;
22705;SDS011;11520;51.198;4.468;2022-07-06T01:31:44;7.18;;;3.20;;
22705;SDS011;11520;51.198;4.468;2022-07-06T01:33:59;8.55;;;3.08;;
22705;SDS011;11520;51.198;4.468;2022-07-06T01:36:25;8.13;;;3.50;;
22705;SDS011;11520;51.198;4.468;2022-07-06T01:38:52;7.93;;;4.07;;
22705;SDS011;11520;51.198;4.468;2022-07-06T01:41:20;6.20;;;3.28;;
22705;SDS011;11520;51.198;4.468;2022-07-06T01:43:46;8.48;;;4.10;;
22705;SDS011;11520;51.198;4.468;2022-07-06T01:46:11;7.10;;;3.40;;
22705;SDS011;11520;51.198;4.468;2022-07-06T01:48:37;5.40;;;3.22;;
22705;SDS011;11520;51.198;4.468;2022-07-06T01:51:06;6.75;;;3.28;;
22705;SDS011;11520;51.198;4.468;2022-07-06T01:53:31;6.47;;;3.80;;
22705;SDS011;11520;51.198;4.468;2022-07-06T01:55:57;6.90;;;3.30;;
22705;SDS011;11520;51.198;4.468;2022-07-06T01:58:23;8.15;;;3.90;;
22705;SDS011;11520;51.198;4.468;2022-07-06T02:00:49;5.40;;;3.65;;
22705;SDS011;11520;51.198;4.468;2022-07-06T02:03:15;7.65;;;4.10;;
22705;SDS011;11520;51.198;4.468;2022-07-06T02:05:40;6.65;;;4.50;;
22705;SDS011;11520;51.198;4.468;2022-07-06T02:08:07;8.00;;;3.80;;
22705;SDS011;11520;51.198;4.468;2022-07-06T02:10:32;10.43;;;4.35;;
22705;SDS011;11520;51.198;4.468;2022-07-06T02:12:58;5.80;;;3.78;;
22705;SDS011;11520;51.198;4.468;2022-07-06T02:15:24;8.52;;;4.30;;
22705;SDS011;11520;51.198;4.468;2022-07-06T02:17:50;6.07;;;3.85;;
22705;SDS011;11520;51.198;4.468;2022-07-06T02:22:45;6.68;;;4.15;;
22705;SDS011;11520;51.198;4.468;2022-07-06T02:25:11;7.22;;;3.83;;
22705;SDS011;11520;51.198;4.468;2022-07-06T02:27:38;5.95;;;3.97;;
22705;SDS011;11520;51.198;4.468;2022-07-06T02:30:04;8.02;;;4.00;;
22705;SDS011;11520;51.198;4.468;2022-07-06T02:32:31;7.28;;;4.43;;
22705;SDS011;11520;51.198;4.468;2022-07-06T02:34:57;7.60;;;4.20;;
22705;SDS011;11520;51.198;4.468;2022-07-06T02:37:25;10.48;;;4.22;;
22705;SDS011;11520;51.198;4.468;2022-07-06T02:39:51;8.52;;;4.07;;
22705;SDS011;11520;51.198;4.468;2022-07-06T02:42:17;8.70;;;4.05;;
22705;SDS011;11520;51.198;4.468;2022-07-06T02:44:42;6.57;;;3.92;;
22705;SDS011;11520;51.198;4.468;2022-07-06T02:47:09;7.10;;;3.65;;
22705;SDS011;11520;51.198;4.468;2022-07-06T02:49:34;9.45;;;4.63;;
22705;SDS011;11520;51.198;4.468;2022-07-06T02:52:01;7.88;;;3.55;;
22705;SDS011;11520;51.198;4.468;2022-07-06T02:54:27;12.18;;;4.30;;
22705;SDS011;11520;51.198;4.468;2022-07-06T02:56:53;8.48;;;4.20;;
22705;SDS011;11520;51.198;4.468;2022-07-06T02:59:20;11.27;;;4.50;;
22705;SDS011;11520;51.198;4.468;2022-07-06T03:01:49;10.57;;;4.20;;
22705;SDS011;11520;51.198;4.468;2022-07-06T03:04:16;8.10;;;4.13;;
22705;SDS011;11520;51.198;4.468;2022-07-06T03:06:42;10.45;;;4.55;;
22705;SDS011;11520;51.198;4.468;2022-07-06T03:09:09;9.45;;;4.22;;
22705;SDS011;11520;51.198;4.468;2022-07-06T03:11:35;7.53;;;4.35;;
22705;SDS011;11520;51.198;4.468;2022-07-06T03:14:02;6.45;;;3.53;;
22705;SDS011;11520;51.198;4.468;2022-07-06T03:16:28;7.18;;;4.13;;
22705;SDS011;11520;51.198;4.468;2022-07-06T03:18:57;4.85;;;3.25;;
22705;SDS011;11520;51.198;4.468;2022-07-06T03:21:28;7.38;;;3.55;;
22705;SDS011;11520;51.198;4.468;2022-07-06T03:23:55;8.98;;;3.60;;
22705;SDS011;11520;51.198;4.468;2022-07-06T03:26:21;10.30;;;3.60;;
22705;SDS011;11520;51.198;4.468;2022-07-06T03:28:47;10.10;;;3.75;;
22705;SDS011;11520;51.198;4.468;2022-07-06T03:31:12;8.45;;;3.83;;
22705;SDS011;11520;51.198;4.468;2022-07-06T03:33:38;6.80;;;3.42;;
22705;SDS011;11520;51.198;4.468;2022-07-06T03:36:04;7.05;;;3.35;;
22705;SDS011;11520;51.198;4.468;2022-07-06T03:38:32;9.68;;;3.80;;
22705;SDS011;11520;51.198;4.468;2022-07-06T03:41:01;9.00;;;3.58;;
22705;SDS011;11520;51.198;4.468;2022-07-06T03:43:27;8.65;;;3.65;;
22705;SDS011;11520;51.198;4.468;2022-07-06T03:45:59;11.07;;;3.75;;
22705;SDS011;11520;51.198;4.468;2022-07-06T03:48:27;8.77;;;3.33;;
22705;SDS011;11520;51.198;4.468;2022-07-06T03:50:58;8.50;;;3.22;;
22705;SDS011;11520;51.198;4.468;2022-07-06T03:53:23;6.82;;;3.47;;
22705;SDS011;11520;51.198;4.468;2022-07-06T03:55:49;11.10;;;3.83;;
22705;SDS011;11520;51.198;4.468;2022-07-06T03:58:40;8.35;;;3.50;;
22705;SDS011;11520;51.198;4.468;2022-07-06T04:01:06;7.43;;;3.65;;
22705;SDS011;11520;51.198;4.468;2022-07-06T04:03:34;4.90;;;3.13;;
22705;SDS011;11520;51.198;4.468;2022-07-06T04:05:59;7.28;;;3.25;;
22705;SDS011;11520;51.198;4.468;2022-07-06T04:08:25;6.03;;;2.53;;
22705;SDS011;11520;51.198;4.468;2022-07-06T04:10:50;7.05;;;3.42;;
22705;SDS011;11520;51.198;4.468;2022-07-06T04:13:16;6.05;;;3.45;;
22705;SDS011;11520;51.198;4.468;2022-07-06T04:15:43;7.05;;;3.05;;
22705;SDS011;11520;51.198;4.468;2022-07-06T04:18:09;8.13;;;3.72;;
22705;SDS011;11520;51.198;4.468;2022-07-06T04:20:35;7.00;;;3.55;;
22705;SDS011;11520;51.198;4.468;2022-07-06T04:23:02;7.38;;;3.58;;
22705;SDS011;11520;51.198;4.468;2022-07-06T04:25:27;7.88;;;3.83;;
22705;SDS011;11520;51.198;4.468;2022-07-06T04:27:53;7.70;;;3.83;;
22705;SDS011;11520;51.198;4.468;2022-07-06T04:30:21;8.93;;;4.00;;
22705;SDS011;11520;51.198;4.468;2022-07-06T04:32:48;15.05;;;3.90;;
22705;SDS011;11520;51.198;4.468;2022-07-06T04:35:13;7.30;;;3.65;;
22705;SDS011;11520;51.198;4.468;2022-07-06T04:37:39;7.35;;;4.10;;
22705;SDS011;11520;51.198;4.468;2022-07-06T04:40:05;10.75;;;4.28;;
22705;SDS011;11520;51.198;4.468;2022-07-06T04:42:32;8.55;;;4.40;;
22705;SDS011;11520;51.198;4.468;2022-07-06T04:44:59;9.85;;;4.55;;
22705;SDS011;11520;51.198;4.468;2022-07-06T04:47:24;9.52;;;4.20;;
22705;SDS011;11520;51.198;4.468;2022-07-06T04:49:51;8.00;;;4.75;;
22705;SDS011;11520;51.198;4.468;2022-07-06T04:52:26;11.57;;;5.47;;
22705;SDS011;11520;51.198;4.468;2022-07-06T04:54:54;8.57;;;5.32;;
22705;SDS011;11520;51.198;4.468;2022-07-06T04:57:20;10.20;;;5.85;;
22705;SDS011;11520;51.198;4.468;2022-07-06T04:59:47;11.23;;;6.07;;
22705;SDS011;11520;51.198;4.468;2022-07-06T05:02:12;17.45;;;7.05;;
22705;SDS011;11520;51.198;4.468;2022-07-06T05:04:39;17.60;;;6.22;;
22705;SDS011;11520;51.198;4.468;2022-07-06T05:07:05;10.82;;;5.50;;
22705;SDS011;11520;51.198;4.468;2022-07-06T05:09:31;13.50;;;6.32;;
22705;SDS011;11520;51.198;4.468;2022-07-06T05:11:57;7.75;;;5.53;;
22705;SDS011;11520;51.198;4.468;2022-07-06T05:14:27;9.98;;;5.72;;
22705;SDS011;11520;51.198;4.468;2022-07-06T05:16:54;11.13;;;6.20;;
22705;SDS011;11520;51.198;4.468;2022-07-06T05:19:19;10.48;;;5.75;;
22705;SDS011;11520;51.198;4.468;2022-07-06T05:21:45;10.85;;;4.90;;
22705;SDS011;11520;51.198;4.468;2022-07-06T05:24:11;9.65;;;4.93;;
22705;SDS011;11520;51.198;4.468;2022-07-06T05:26:38;10.23;;;5.13;;
22705;SDS011;11520;51.198;4.468;2022-07-06T05:29:05;8.65;;;4.57;;
22705;SDS011;11520;51.198;4.468;2022-07-06T05:31:30;7.55;;;3.25;;
22705;SDS011;11520;51.198;4.468;2022-07-06T05:33:56;9.38;;;4.15;;
22705;SDS011;11520;51.198;4.468;2022-07-06T05:36:21;11.75;;;3.85;;
22705;SDS011;11520;51.198;4.468;2022-07-06T05:38:48;6.40;;;3.88;;
22705;SDS011;11520;51.198;4.468;2022-07-06T05:41:15;10.80;;;3.90;;
22705;SDS011;11520;51.198;4.468;2022-07-06T05:43:42;10.05;;;3.97;;
22705;SDS011;11520;51.198;4.468;2022-07-06T05:46:08;7.03;;;3.53;;
22705;SDS011;11520;51.198;4.468;2022-07-06T05:48:33;10.15;;;3.63;;
22705;SDS011;11520;51.198;4.468;2022-07-06T05:51:17;9.48;;;3.13;;
22705;SDS011;11520;51.198;4.468;2022-07-06T05:53:43;9.35;;;2.95;;
22705;SDS011;11520;51.198;4.468;2022-07-06T05:56:09;8.38;;;2.72;;
22705;SDS011;11520;51.198;4.468;2022-07-06T05:58:36;5.15;;;2.50;;
22705;SDS011;11520;51.198;4.468;2022-07-06T06:01:02;5.68;;;2.30;;
22705;SDS011;11520;51.198;4.468;2022-07-06T06:03:30;12.48;;;2.55;;
22705;SDS011;11520;51.198;4.468;2022-07-06T06:05:56;7.28;;;2.45;;
22705;SDS011;11520;51.198;4.468;2022-07-06T06:08:24;6.40;;;1.95;;
22705;SDS011;11520;51.198;4.468;2022-07-06T06:10:49;5.85;;;1.95;;
22705;SDS011;11520;51.198;4.468;2022-07-06T06:13:17;8.10;;;2.30;;
22705;SDS011;11520;51.198;4.468;2022-07-06T06:15:44;4.90;;;2.00;;
22705;SDS011;11520;51.198;4.468;2022-07-06T06:18:11;6.53;;;1.30;;
22705;SDS011;11520;51.198;4.468;2022-07-06T06:20:37;5.38;;;1.42;;
22705;SDS011;11520;51.198;4.468;2022-07-06T06:23:03;4.18;;;1.20;;
22705;SDS011;11520;51.198;4.468;2022-07-06T06:25:32;4.07;;;1.45;;
22705;SDS011;11520;51.198;4.468;2022-07-06T06:28:02;5.82;;;1.35;;
22705;SDS011;11520;51.198;4.468;2022-07-06T06:30:29;9.02;;;1.48;;
22705;SDS011;11520;51.198;4.468;2022-07-06T06:33:09;3.65;;;1.42;;
22705;SDS011;11520;51.198;4.468;2022-07-06T06:35:42;4.65;;;1.10;;
22705;SDS011;11520;51.198;4.468;2022-07-06T06:38:13;6.97;;;1.13;;
22705;SDS011;11520;51.198;4.468;2022-07-06T06:40:39;4.00;;;1.00;;
22705;SDS011;11520;51.198;4.468;2022-07-06T06:43:07;7.47;;;1.35;;
22705;SDS011;11520;51.198;4.468;2022-07-06T06:45:33;8.32;;;1.60;;
22705;SDS011;11520;51.198;4.468;2022-07-06T06:48:00;7.53;;;1.08;;
22705;SDS011;11520;51.198;4.468;2022-07-06T06:50:26;8.27;;;1.38;;
22705;SDS011;11520;51.198;4.468;2022-07-06T06:52:52;5.18;;;1.08;;
22705;SDS011;11520;51.198;4.468;2022-07-06T06:55:20;6.90;;;1.35;;
22705;SDS011;11520;51.198;4.468;2022-07-06T06:57:47;7.88;;;1.63;;
22705;SDS011;11520;51.198;4.468;2022-07-06T07:00:13;5.50;;;1.17;;
22705;SDS011;11520;51.198;4.468;2022-07-06T07:02:39;3.45;;;0.80;;
22705;SDS011;11520;51.198;4.468;2022-07-06T07:05:06;3.88;;;1.08;;
22705;SDS011;11520;51.198;4.468;2022-07-06T07:07:32;4.45;;;0.90;;
22705;SDS011;11520;51.198;4.468;2022-07-06T07:09:58;3.47;;;0.93;;
22705;SDS011;11520;51.198;4.468;2022-07-06T07:12:25;5.25;;;0.80;;
22705;SDS011;11520;51.198;4.468;2022-07-06T07:14:51;4.78;;;1.23;;
22705;SDS011;11520;51.198;4.468;2022-07-06T07:17:18;4.97;;;0.70;;
22705;SDS011;11520;51.198;4.468;2022-07-06T07:19:44;7.10;;;1.10;;
22705;SDS011;11520;51.198;4.468;2022-07-06T07:22:13;5.13;;;0.85;;
22705;SDS011;11520;51.198;4.468;2022-07-06T07:24:41;4.15;;;1.00;;
22705;SDS011;11520;51.198;4.468;2022-07-06T07:27:06;3.70;;;0.88;;
22705;SDS011;11520;51.198;4.468;2022-07-06T07:29:32;3.25;;;1.00;;
22705;SDS011;11520;51.198;4.468;2022-07-06T07:31:58;4.47;;;1.08;;
22705;SDS011;11520;51.198;4.468;2022-07-06T07:34:24;5.55;;;1.40;;
22705;SDS011;11520;51.198;4.468;2022-07-06T07:36:50;5.65;;;1.23;;
22705;SDS011;11520;51.198;4.468;2022-07-06T07:39:16;4.82;;;1.00;;
22705;SDS011;11520;51.198;4.468;2022-07-06T07:41:41;3.08;;;1.00;;
22705;SDS011;11520;51.198;4.468;2022-07-06T07:44:08;5.45;;;1.20;;
22705;SDS011;11520;51.198;4.468;2022-07-06T07:46:42;4.55;;;1.25;;
22705;SDS011;11520;51.198;4.468;2022-07-06T07:49:08;4.28;;;1.13;;
22705;SDS011;11520;51.198;4.468;2022-07-06T07:51:37;4.95;;;1.45;;
22705;SDS011;11520;51.198;4.468;2022-07-06T07:54:03;7.80;;;1.42;;
22705;SDS011;11520;51.198;4.468;2022-07-06T07:56:30;6.60;;;1.40;;
22705;SDS011;11520;51.198;4.468;2022-07-06T07:58:55;4.57;;;0.80;;
22705;SDS011;11520;51.198;4.468;2022-07-06T08:01:22;3.58;;;1.20;;
22705;SDS011;11520;51.198;4.468;2022-07-06T08:03:47;4.30;;;1.52;;
22705;SDS011;11520;51.198;4.468;2022-07-06T08:06:14;4.25;;;1.10;;
22705;SDS011;11520;51.198;4.468;2022-07-06T08:08:40;4.88;;;1.20;;
22705;SDS011;11520;51.198;4.468;2022-07-06T08:11:05;3.05;;;1.20;;
22705;SDS011;11520;51.198;4.468;2022-07-06T08:13:33;3.95;;;1.10;;
22705;SDS011;11520;51.198;4.468;2022-07-06T08:16:00;6.90;;;1.83;;
22705;SDS011;11520;51.198;4.468;2022-07-06T08:18:26;3.47;;;1.20;;
22705;SDS011;11520;51.198;4.468;2022-07-06T08:20:52;4.28;;;1.08;;
22705;SDS011;11520;51.198;4.468;2022-07-06T08:23:18;8.90;;;1.98;;
22705;SDS011;11520;51.198;4.468;2022-07-06T08:25:44;3.80;;;1.00;;
22705;SDS011;11520;51.198;4.468;2022-07-06T08:28:11;5.90;;;1.38;;
22705;SDS011;11520;51.198;4.468;2022-07-06T08:30:36;3.33;;;1.13;;
22705;SDS011;11520;51.198;4.468;2022-07-06T08:33:03;4.13;;;0.98;;
22705;SDS011;11520;51.198;4.468;2022-07-06T08:35:30;1.67;;;0.80;;
22705;SDS011;11520;51.198;4.468;2022-07-06T08:37:56;3.70;;;1.00;;
22705;SDS011;11520;51.198;4.468;2022-07-06T08:40:22;7.57;;;1.20;;
22705;SDS011;11520;51.198;4.468;2022-07-06T08:42:50;3.45;;;0.77;;
22705;SDS011;11520;51.198;4.468;2022-07-06T08:45:19;7.20;;;1.30;;
22705;SDS011;11520;51.198;4.468;2022-07-06T08:47:45;3.90;;;0.90;;
22705;SDS011;11520;51.198;4.468;2022-07-06T08:50:15;4.72;;;0.82;;
22705;SDS011;11520;51.198;4.468;2022-07-06T08:52:41;3.95;;;1.30;;
22705;SDS011;11520;51.198;4.468;2022-07-06T08:55:10;9.05;;;1.30;;
22705;SDS011;11520;51.198;4.468;2022-07-06T08:57:38;2.28;;;0.70;;
22705;SDS011;11520;51.198;4.468;2022-07-06T09:00:05;3.85;;;0.90;;
22705;SDS011;11520;51.198;4.468;2022-07-06T09:02:32;2.45;;;1.00;;
22705;SDS011;11520;51.198;4.468;2022-07-06T09:05:01;3.20;;;0.90;;
22705;SDS011;11520;51.198;4.468;2022-07-06T09:07:29;6.25;;;0.95;;
22705;SDS011;11520;51.198;4.468;2022-07-06T09:09:55;2.72;;;0.90;;
22705;SDS011;11520;51.198;4.468;2022-07-06T09:12:25;3.05;;;1.00;;
22705;SDS011;11520;51.198;4.468;2022-07-06T09:14:54;6.25;;;1.00;;
22705;SDS011;11520;51.198;4.468;2022-07-06T09:17:25;3.78;;;1.13;;
22705;SDS011;11520;51.198;4.468;2022-07-06T09:19:52;5.35;;;1.10;;
22705;SDS011;11520;51.198;4.468;2022-07-06T09:22:25;6.75;;;1.35;;
22705;SDS011;11520;51.198;4.468;2022-07-06T09:24:52;6.05;;;1.15;;
22705;SDS011;11520;51.198;4.468;2022-07-06T09:27:17;7.90;;;1.55;;
22705;SDS011;11520;51.198;4.468;2022-07-06T09:29:43;22.52;;;2.33;;
22705;SDS011;11520;51.198;4.468;2022-07-06T09:32:10;8.48;;;1.52;;
22705;SDS011;11520;51.198;4.468;2022-07-06T09:34:46;6.72;;;1.23;;
22705;SDS011;11520;51.198;4.468;2022-07-06T09:37:12;16.77;;;2.40;;
22705;SDS011;11520;51.198;4.468;2022-07-06T09:39:39;7.88;;;1.40;;
22705;SDS011;11520;51.198;4.468;2022-07-06T09:42:06;3.28;;;1.58;;
22705;SDS011;11520;51.198;4.468;2022-07-06T09:44:37;6.20;;;1.30;;
22705;SDS011;11520;51.198;4.468;2022-07-06T09:47:06;6.25;;;1.38;;
22705;SDS011;11520;51.198;4.468;2022-07-06T09:49:36;5.00;;;1.00;;
22705;SDS011;11520;51.198;4.468;2022-07-06T09:52:09;7.80;;;2.78;;
22705;SDS011;11520;51.198;4.468;2022-07-06T09:54:36;3.85;;;1.10;;
22705;SDS011;11520;51.198;4.468;2022-07-06T09:57:09;12.07;;;1.65;;
22705;SDS011;11520;51.198;4.468;2022-07-06T09:59:35;5.70;;;1.45;;
22705;SDS011;11520;51.198;4.468;2022-07-06T10:02:06;3.97;;;0.90;;
22705;SDS011;11520;51.198;4.468;2022-07-06T10:04:32;3.33;;;1.10;;
22705;SDS011;11520;51.198;4.468;2022-07-06T10:06:59;3.72;;;0.88;;
22705;SDS011;11520;51.198;4.468;2022-07-06T10:09:26;6.63;;;0.90;;
22705;SDS011;11520;51.198;4.468;2022-07-06T10:11:59;5.47;;;1.10;;
22705;SDS011;11520;51.198;4.468;2022-07-06T10:14:29;7.93;;;1.13;;
22705;SDS011;11520;51.198;4.468;2022-07-06T10:16:57;3.45;;;1.13;;
22705;SDS011;11520;51.198;4.468;2022-07-06T10:19:30;4.00;;;0.88;;
22705;SDS011;11520;51.198;4.468;2022-07-06T10:22:00;5.72;;;1.00;;
22705;SDS011;11520;51.198;4.468;2022-07-06T10:24:28;5.82;;;1.20;;
22705;SDS011;11520;51.198;4.468;2022-07-06T10:26:55;4.18;;;1.27;;
22705;SDS011;11520;51.198;4.468;2022-07-06T10:29:21;5.07;;;1.08;;
22705;SDS011;11520;51.198;4.468;2022-07-06T10:31:48;5.18;;;1.10;;
22705;SDS011;11520;51.198;4.468;2022-07-06T10:34:15;4.28;;;1.50;;
22705;SDS011;11520;51.198;4.468;2022-07-06T10:36:44;4.82;;;0.90;;
22705;SDS011;11520;51.198;4.468;2022-07-06T10:39:14;3.50;;;1.08;;
22705;SDS011;11520;51.198;4.468;2022-07-06T10:41:58;3.08;;;1.63;;
22705;SDS011;11520;51.198;4.468;2022-07-06T10:44:25;5.93;;;1.30;;
22705;SDS011;11520;51.198;4.468;2022-07-06T10:49:18;5.72;;;1.20;;
22705;SDS011;11520;51.198;4.468;2022-07-06T10:51:44;2.95;;;1.50;;
22705;SDS011;11520;51.198;4.468;2022-07-06T10:54:11;4.53;;;1.30;;
22705;SDS011;11520;51.198;4.468;2022-07-06T10:56:45;6.15;;;2.25;;
22705;SDS011;11520;51.198;4.468;2022-07-06T10:59:20;4.07;;;1.52;;
22705;SDS011;11520;51.198;4.468;2022-07-06T11:04:37;5.95;;;1.38;;
22705;SDS011;11520;51.198;4.468;2022-07-06T11:07:12;4.95;;;1.50;;
22705;SDS011;11520;51.198;4.468;2022-07-06T11:09:55;5.85;;;1.48;;
22705;SDS011;11520;51.198;4.468;2022-07-06T11:12:22;13.40;;;1.70;;
22705;SDS011;11520;51.198;4.468;2022-07-06T11:14:49;3.30;;;1.13;;
22705;SDS011;11520;51.198;4.468;2022-07-06T11:17:18;2.47;;;1.05;;
22705;SDS011;11520;51.198;4.468;2022-07-06T11:19:56;5.10;;;1.42;;
22705;SDS011;11520;51.198;4.468;2022-07-06T11:22:26;5.20;;;1.20;;
22705;SDS011;11520;51.198;4.468;2022-07-06T11:24:54;5.15;;;1.80;;
22705;SDS011;11520;51.198;4.468;2022-07-06T11:27:24;3.30;;;1.15;;
22705;SDS011;11520;51.198;4.468;2022-07-06T11:29:50;4.82;;;0.93;;
22705;SDS011;11520;51.198;4.468;2022-07-06T11:32:22;5.28;;;1.10;;
22705;SDS011;11520;51.198;4.468;2022-07-06T11:34:49;3.35;;;1.00;;
22705;SDS011;11520;51.198;4.468;2022-07-06T11:37:15;9.25;;;1.85;;
22705;SDS011;11520;51.198;4.468;2022-07-06T11:39:44;6.65;;;1.50;;
22705;SDS011;11520;51.198;4.468;2022-07-06T11:42:12;3.75;;;1.02;;
22705;SDS011;11520;51.198;4.468;2022-07-06T11:44:40;5.28;;;0.90;;
22705;SDS011;11520;51.198;4.468;2022-07-06T11:47:07;7.53;;;1.55;;
22705;SDS011;11520;51.198;4.468;2022-07-06T11:49:36;5.93;;;1.02;;
22705;SDS011;11520;51.198;4.468;2022-07-06T11:52:10;4.93;;;1.02;;
22705;SDS011;11520;51.198;4.468;2022-07-06T11:54:37;4.40;;;1.42;;
22705;SDS011;11520;51.198;4.468;2022-07-06T11:57:03;2.15;;;0.90;;
22705;SDS011;11520;51.198;4.468;2022-07-06T11:59:34;4.07;;;1.10;;
22705;SDS011;11520;51.198;4.468;2022-07-06T12:02:01;3.65;;;0.90;;
22705;SDS011;11520;51.198;4.468;2022-07-06T12:04:32;4.68;;;0.88;;
22705;SDS011;11520;51.198;4.468;2022-07-06T12:06:59;3.88;;;0.95;;
22705;SDS011;11520;51.198;4.468;2022-07-06T12:09:33;4.90;;;1.00;;
22705;SDS011;11520;51.198;4.468;2022-07-06T12:12:00;3.35;;;0.77;;
22705;SDS011;11520;51.198;4.468;2022-07-06T12:14:30;3.00;;;1.20;;
22705;SDS011;11520;51.198;4.468;2022-07-06T12:17:05;5.63;;;1.10;;
22705;SDS011;11520;51.198;4.468;2022-07-06T12:19:32;3.55;;;1.17;;
22705;SDS011;11520;51.198;4.468;2022-07-06T12:21:59;3.25;;;1.00;;
22705;SDS011;11520;51.198;4.468;2022-07-06T12:24:27;3.10;;;1.20;;
22705;SDS011;11520;51.198;4.468;2022-07-06T12:26:57;4.93;;;1.45;;
22705;SDS011;11520;51.198;4.468;2022-07-06T12:29:25;5.25;;;1.30;;
22705;SDS011;11520;51.198;4.468;2022-07-06T12:31:51;6.40;;;1.20;;
22705;SDS011;11520;51.198;4.468;2022-07-06T12:34:26;3.85;;;1.52;;
22705;SDS011;11520;51.198;4.468;2022-07-06T12:36:59;4.07;;;1.10;;
22705;SDS011;11520;51.198;4.468;2022-07-06T12:39:30;10.95;;;1.40;;
22705;SDS011;11520;51.198;4.468;2022-07-06T12:42:01;6.78;;;1.70;;
22705;SDS011;11520;51.198;4.468;2022-07-06T12:44:29;4.63;;;1.40;;
22705;SDS011;11520;51.198;4.468;2022-07-06T12:47:06;2.33;;;1.50;;
22705;SDS011;11520;51.198;4.468;2022-07-06T12:49:33;8.40;;;1.58;;
22705;SDS011;11520;51.198;4.468;2022-07-06T12:54:31;9.43;;;1.60;;
22705;SDS011;11520;51.198;4.468;2022-07-06T12:59:41;4.40;;;1.70;;
22705;SDS011;11520;51.198;4.468;2022-07-06T13:02:08;6.97;;;1.33;;
22705;SDS011;11520;51.198;4.468;2022-07-06T13:04:41;1.65;;;1.17;;
22705;SDS011;11520;51.198;4.468;2022-07-06T13:07:07;4.75;;;1.88;;
22705;SDS011;11520;51.198;4.468;2022-07-06T13:09:44;5.88;;;2.10;;
22705;SDS011;11520;51.198;4.468;2022-07-06T13:12:11;5.78;;;1.55;;
22705;SDS011;11520;51.198;4.468;2022-07-06T13:14:36;5.95;;;1.60;;
22705;SDS011;11520;51.198;4.468;2022-07-06T13:17:02;4.57;;;2.10;;
22705;SDS011;11520;51.198;4.468;2022-07-06T13:19:28;7.18;;;1.63;;
22705;SDS011;11520;51.198;4.468;2022-07-06T13:22:01;6.47;;;2.30;;
22705;SDS011;11520;51.198;4.468;2022-07-06T13:24:27;5.60;;;1.85;;
22705;SDS011;11520;51.198;4.468;2022-07-06T13:26:54;4.03;;;1.80;;
22705;SDS011;11520;51.198;4.468;2022-07-06T13:29:21;4.70;;;1.85;;
22705;SDS011;11520;51.198;4.468;2022-07-06T13:31:47;5.80;;;1.98;;
22705;SDS011;11520;51.198;4.468;2022-07-06T13:34:16;3.45;;;1.40;;
22705;SDS011;11520;51.198;4.468;2022-07-06T13:36:42;7.22;;;2.08;;
22705;SDS011;11520;51.198;4.468;2022-07-06T13:39:08;4.55;;;2.22;;
22705;SDS011;11520;51.198;4.468;2022-07-06T13:41:35;7.38;;;2.00;;
22705;SDS011;11520;51.198;4.468;2022-07-06T13:44:01;11.77;;;3.00;;
22705;SDS011;11520;51.198;4.468;2022-07-06T13:46:28;7.03;;;2.65;;
22705;SDS011;11520;51.198;4.468;2022-07-06T13:48:54;9.20;;;3.00;;
22705;SDS011;11520;51.198;4.468;2022-07-06T13:51:21;4.00;;;2.35;;
22705;SDS011;11520;51.198;4.468;2022-07-06T13:53:47;4.55;;;2.40;;
22705;SDS011;11520;51.198;4.468;2022-07-06T13:56:13;4.40;;;2.40;;
22705;SDS011;11520;51.198;4.468;2022-07-06T13:58:39;5.88;;;2.40;;
22705;SDS011;11520;51.198;4.468;2022-07-06T14:01:05;4.93;;;2.35;;
22705;SDS011;11520;51.198;4.468;2022-07-06T14:03:32;7.35;;;2.72;;
22705;SDS011;11520;51.198;4.468;2022-07-06T14:05:59;5.93;;;2.47;;
22705;SDS011;11520;51.198;4.468;2022-07-06T14:08:26;8.25;;;2.42;;
22705;SDS011;11520;51.198;4.468;2022-07-06T14:10:52;7.60;;;2.78;;
22705;SDS011;11520;51.198;4.468;2022-07-06T14:13:19;7.07;;;2.80;;
22705;SDS011;11520;51.198;4.468;2022-07-06T14:15:47;10.65;;;2.75;;
22705;SDS011;11520;51.198;4.468;2022-07-06T14:18:14;7.90;;;3.17;;
22705;SDS011;11520;51.198;4.468;2022-07-06T14:20:42;7.30;;;2.85;;
22705;SDS011;11520;51.198;4.468;2022-07-06T14:23:13;7.75;;;3.03;;
22705;SDS011;11520;51.198;4.468;2022-07-06T14:25:40;10.75;;;3.35;;
22705;SDS011;11520;51.198;4.468;2022-07-06T14:28:06;8.13;;;2.78;;
22705;SDS011;11520;51.198;4.468;2022-07-06T14:30:34;9.50;;;3.50;;
22705;SDS011;11520;51.198;4.468;2022-07-06T14:33:04;6.57;;;2.83;;
22705;SDS011;11520;51.198;4.468;2022-07-06T14:35:34;7.60;;;3.05;;
22705;SDS011;11520;51.198;4.468;2022-07-06T14:38:01;7.40;;;3.22;;
22705;SDS011;11520;51.198;4.468;2022-07-06T14:40:28;8.23;;;3.17;;
22705;SDS011;11520;51.198;4.468;2022-07-06T14:42:53;8.10;;;3.85;;
22705;SDS011;11520;51.198;4.468;2022-07-06T14:45:21;8.38;;;2.88;;
22705;SDS011;11520;51.198;4.468;2022-07-06T14:47:48;8.45;;;2.72;;
22705;SDS011;11520;51.198;4.468;2022-07-06T14:50:13;6.10;;;2.38;;
22705;SDS011;11520;51.198;4.468;2022-07-06T14:52:40;6.18;;;2.53;;
22705;SDS011;11520;51.198;4.468;2022-07-06T14:55:08;8.10;;;2.10;;
22705;SDS011;11520;51.198;4.468;2022-07-06T14:57:34;6.40;;;2.10;;
22705;SDS011;11520;51.198;4.468;2022-07-06T15:00:00;7.32;;;2.25;;
22705;SDS011;11520;51.198;4.468;2022-07-06T15:02:26;12.93;;;2.88;;
22705;SDS011;11520;51.198;4.468;2022-07-06T15:04:52;4.22;;;2.47;;
22705;SDS011;11520;51.198;4.468;2022-07-06T15:07:19;5.70;;;2.00;;